LLBG

Ben Gurion International Airport

Tel Aviv, Israel
TAF LLBG 192305Z 2000/2024 VRB03KT 9999 SCT022 BECMG 2006/2008 29010KT SCT030 PROB30 2008/2016 RA BKN025 BECMG 2016/2018 VRB04KT SCT025 TX27/2012Z TN21/2003Z
Issued Valid From Valid To
Oct-19 @ 23:05 UTC
(3 hours ago)
Oct-20 @ 00:00 UTC
(2 hours ago)
Oct-21 @ 00:00 UTC
(in 22 hours)
Oct-20 @ 00:00 to Oct-20 @ 06:00
TAF LLBG 192305Z 2000/2024 VRB03KT 9999 SCT022
Wind Visibility Clouds
Variable at 3 knots 10,000+ meters
  • Scattered at 2,200' AGL
Becoming Oct-20 @ 06:00 to Oct-20 @ 16:00
BECMG 2006/2008 29010KT SCT030
Wind Visibility Clouds
290° at 10 knots 10,000+ meters
  • Scattered at 3,000' AGL
Probable  (Probability 30%) Oct-20 @ 08:00 to Oct-20 @ 16:00
PROB30 2008/2016 RA BKN025
Clouds Conditions
  • Broken at 2,500' AGL
  • Rain
Becoming Oct-20 @ 16:00 to Oct-21 @ 00:00
BECMG 2016/2018 VRB04KT SCT025 TX27/2012Z TN21/2003Z
Wind Visibility Clouds
Variable at 4 knots 10,000+ meters
  • Scattered at 2,500' AGL
TAF LLBG 192305Z 2000/2024 VRB03KT 9999 SCT022 BECMG 2006/2008 29010KT SCT030 PROB30 2008/2016 RA BKN025 BECMG 2016/2018 VRB04KT SCT025 TX27/2012Z TN21/2003Z
Issued Oct-19 @ 23:05 UTC
(3 hours ago)
Valid From Oct-20 @ 00:00 UTC
(2 hours ago)
Valid To Oct-21 @ 00:00 UTC
(in 22 hours)
Oct-20 @ 00:00 - Oct-20 @ 06:00
Wind Visibility
Variable at 3 knots 10,000+ meters
Clouds
  • Scattered at 2,200' AGL
Becoming Oct-20 @ 06:00 - Oct-20 @ 16:00
Wind Visibility
290° at 10 knots 10,000+ meters
Clouds
  • Scattered at 3,000' AGL
Probability 30% Probable Oct-20 @ 08:00 - Oct-20 @ 16:00
Clouds
  • Broken at 2,500' AGL
Conditions
  • Rain
Becoming Oct-20 @ 16:00 - Oct-21 @ 00:00
Wind Visibility
Variable at 4 knots 10,000+ meters
Clouds
  • Scattered at 2,500' AGL